createdAt,value
2019-02-17T00:00:13.667Z,26.50
2019-02-17T00:01:13.654Z,24.00
2019-02-17T00:02:13.648Z,22.80
2019-02-17T00:03:13.632Z,22.20
2019-02-17T00:04:13.647Z,21.90
2019-02-17T00:05:13.612Z,21.10
2019-02-17T00:06:13.607Z,22.50
2019-02-17T00:07:13.589Z,22.30
2019-02-17T00:08:13.590Z,21.60
2019-02-17T00:09:13.585Z,20.70
2019-02-17T00:10:13.551Z,21.10
2019-02-17T00:11:13.543Z,18.90
2019-02-17T00:12:13.531Z,19.40
2019-02-17T00:13:13.522Z,19.60
2019-02-17T00:14:13.542Z,18.70
2019-02-17T00:15:13.498Z,19.70
2019-02-17T00:16:13.489Z,19.40
2019-02-17T00:17:13.477Z,19.50
2019-02-17T00:18:13.464Z,19.30
2019-02-17T00:19:13.450Z,20.80
2019-02-17T00:20:13.476Z,21.70
2019-02-17T00:21:13.429Z,23.00
2019-02-17T00:22:13.414Z,23.80
2019-02-17T00:23:13.406Z,21.60
2019-02-17T00:24:13.399Z,21.30
2019-02-17T00:25:13.411Z,20.50
2019-02-17T00:26:13.381Z,20.50
2019-02-17T00:27:13.365Z,20.80
2019-02-17T00:28:13.357Z,20.10
2019-02-17T00:29:13.344Z,20.10
2019-02-17T00:30:13.355Z,20.20
2019-02-17T00:31:13.314Z,20.30
2019-02-17T00:32:13.307Z,19.80
2019-02-17T00:33:13.293Z,21.40
2019-02-17T00:34:13.854Z,21.30
2019-02-17T00:35:13.303Z,20.90
2019-02-17T00:36:13.277Z,21.10
2019-02-17T00:37:13.249Z,21.20
2019-02-17T00:38:13.244Z,20.80
2019-02-17T00:39:13.236Z,20.30
2019-02-17T00:40:13.212Z,20.20
2019-02-17T00:41:13.222Z,20.20
2019-02-17T00:42:13.205Z,20.40
2019-02-17T00:43:13.181Z,19.60
2019-02-17T00:44:13.171Z,19.80
2019-02-17T00:45:13.159Z,20.20
2019-02-17T00:46:13.160Z,20.30
2019-02-17T00:47:13.163Z,19.50
2019-02-17T00:48:13.125Z,18.30
2019-02-17T00:49:13.114Z,17.90
2019-02-17T00:50:13.153Z,18.60
2019-02-17T00:51:13.123Z,18.20
2019-02-17T00:52:13.079Z,18.10
2019-02-17T00:53:13.068Z,18.10
2019-02-17T00:54:13.130Z,16.70
2019-02-17T00:55:13.046Z,18.60
2019-02-17T00:56:13.052Z,17.60
2019-02-17T00:57:13.028Z,17.50
2019-02-17T00:58:13.011Z,16.70
2019-02-17T00:59:13.000Z,18.00
2019-02-17T01:00:12.989Z,17.70
2019-02-17T01:01:13.008Z,18.00
2019-02-17T01:02:12.972Z,17.30
2019-02-17T01:03:12.956Z,16.60
2019-02-17T01:04:12.948Z,17.30
2019-02-17T01:05:12.937Z,17.30
2019-02-17T01:06:12.954Z,16.90
2019-02-17T01:07:12.915Z,17.20
2019-02-17T01:08:12.902Z,16.90
2019-02-17T01:09:12.891Z,16.90
2019-02-17T01:10:12.883Z,16.00
2019-02-17T01:11:12.880Z,17.00
2019-02-17T01:12:12.876Z,17.20
2019-02-17T01:13:12.845Z,16.20
2019-02-17T01:14:12.838Z,16.40
2019-02-17T01:15:12.823Z,15.70
2019-02-17T01:16:12.808Z,15.50
2019-02-17T01:17:12.816Z,15.60
2019-02-17T01:18:12.787Z,16.10
2019-02-17T01:19:12.777Z,16.60
2019-02-17T01:20:12.766Z,15.20
2019-02-17T01:21:12.759Z,15.50
2019-02-17T01:22:12.778Z,15.10
2019-02-17T01:23:12.736Z,15.60
2019-02-17T01:24:12.722Z,15.10
2019-02-17T01:25:12.705Z,15.00
2019-02-17T01:26:12.698Z,14.60
2019-02-17T01:27:12.689Z,14.80
2019-02-17T01:28:12.701Z,14.90
2019-02-17T01:29:20.051Z,14.60
2019-02-17T01:30:13.655Z,15.10
2019-02-17T01:31:12.641Z,14.40
2019-02-17T01:32:12.647Z,15.10
2019-02-17T01:33:12.639Z,14.00
2019-02-17T01:34:12.619Z,14.00
2019-02-17T01:35:12.605Z,14.20
2019-02-17T01:36:12.588Z,14.30
2019-02-17T01:37:12.576Z,14.80
2019-02-17T01:38:12.610Z,14.00
2019-02-17T01:39:12.555Z,14.10
2019-02-17T01:40:12.539Z,13.80
2019-02-17T01:41:12.535Z,14.20
2019-02-17T01:42:12.518Z,13.40
2019-02-17T01:43:12.535Z,13.50
2019-02-17T01:44:12.498Z,13.50
2019-02-17T01:45:12.505Z,13.60
2019-02-17T01:46:12.478Z,13.90
2019-02-17T01:47:12.461Z,13.20
2019-02-17T01:48:12.473Z,13.50
2019-02-17T01:49:12.449Z,13.30
2019-02-17T01:50:12.429Z,13.40
2019-02-17T01:51:12.614Z,13.80
2019-02-17T01:52:12.408Z,13.10
2019-02-17T01:53:12.443Z,13.50
2019-02-17T01:54:12.384Z,13.50
2019-02-17T01:55:12.376Z,12.60
2019-02-17T01:56:12.366Z,13.70
2019-02-17T01:57:12.357Z,13.20
2019-02-17T01:58:12.372Z,13.60
2019-02-17T01:59:12.330Z,13.20
2019-02-17T02:00:12.320Z,13.20
2019-02-17T02:01:12.310Z,12.60
2019-02-17T02:02:12.294Z,13.00
2019-02-17T02:03:12.300Z,12.60
2019-02-17T02:04:12.292Z,11.90
2019-02-17T02:05:12.264Z,12.30
2019-02-17T02:06:12.250Z,12.90
2019-02-17T02:07:12.242Z,12.50
2019-02-17T02:08:12.228Z,12.30
2019-02-17T02:09:12.227Z,12.50
2019-02-17T02:10:12.207Z,12.70
2019-02-17T02:11:12.204Z,11.70
2019-02-17T02:12:12.185Z,12.10
2019-02-17T02:13:12.181Z,12.00
2019-02-17T02:14:12.177Z,11.70
2019-02-17T02:15:12.152Z,11.80
2019-02-17T02:16:12.138Z,12.00
2019-02-17T02:17:12.124Z,11.60
2019-02-17T02:18:12.114Z,11.80
2019-02-17T02:19:12.148Z,12.60
2019-02-17T02:20:12.091Z,11.70
2019-02-17T02:21:12.204Z,11.50
2019-02-17T02:22:12.071Z,11.40
2019-02-17T02:23:12.067Z,12.10
2019-02-17T02:24:12.049Z,12.00
2019-02-17T02:25:12.061Z,11.40
2019-02-17T02:26:12.031Z,12.30
2019-02-17T02:27:12.015Z,12.20
2019-02-17T02:28:12.017Z,11.70
2019-02-17T02:29:11.991Z,12.20
2019-02-17T02:30:12.002Z,11.70
2019-02-17T02:31:11.973Z,11.70
2019-02-17T02:32:11.954Z,12.30
2019-02-17T02:33:11.951Z,11.60
2019-02-17T02:34:11.935Z,12.00
2019-02-17T02:35:11.940Z,11.60
2019-02-17T02:36:11.909Z,11.50
2019-02-17T02:37:11.901Z,11.00
2019-02-17T02:38:13.574Z,11.10
2019-02-17T02:39:11.876Z,11.60
2019-02-17T02:40:11.969Z,11.40
2019-02-17T02:41:11.862Z,11.30
2019-02-17T02:42:11.855Z,11.50
2019-02-17T02:43:11.830Z,11.50
2019-02-17T02:44:11.821Z,11.40
2019-02-17T02:45:11.841Z,11.70
2019-02-17T02:46:11.797Z,11.90
2019-02-17T02:47:11.787Z,11.90
2019-02-17T02:48:11.783Z,11.60
2019-02-17T02:49:11.767Z,11.60
2019-02-17T02:50:11.774Z,11.70
2019-02-17T02:51:11.744Z,11.60
2019-02-17T02:52:11.739Z,11.50
2019-02-17T02:53:11.717Z,11.50
2019-02-17T02:54:11.708Z,11.30
2019-02-17T02:55:11.717Z,11.20
2019-02-17T02:56:11.684Z,11.50
2019-02-17T02:57:11.676Z,11.10
2019-02-17T02:58:11.665Z,11.30
2019-02-17T02:59:11.650Z,11.10
2019-02-17T03:00:11.658Z,11.80
2019-02-17T03:01:11.632Z,11.20
2019-02-17T03:02:11.623Z,11.50
2019-02-17T03:03:11.621Z,11.40
2019-02-17T03:04:11.604Z,11.40
2019-02-17T03:05:11.623Z,11.80
2019-02-17T03:06:11.574Z,11.90
2019-02-17T03:07:11.573Z,11.00
2019-02-17T03:08:11.550Z,11.60
2019-02-17T03:09:11.541Z,11.40
2019-02-17T03:10:11.527Z,11.20
2019-02-17T03:11:11.540Z,11.40
2019-02-17T03:12:11.510Z,11.30
2019-02-17T03:13:11.498Z,10.90
2019-02-17T03:14:11.489Z,11.10
2019-02-17T03:15:11.479Z,11.50
2019-02-17T03:16:11.485Z,10.80
2019-02-17T03:17:11.453Z,11.40
2019-02-17T03:18:11.443Z,11.20
2019-02-17T03:19:11.436Z,11.60
2019-02-17T03:20:11.416Z,12.00
2019-02-17T03:21:11.428Z,11.20
2019-02-17T03:22:11.409Z,10.80
2019-02-17T03:23:11.384Z,10.70
2019-02-17T03:24:11.375Z,11.80
2019-02-17T03:25:11.382Z,11.30
2019-02-17T03:26:11.369Z,11.80
2019-02-17T03:27:11.359Z,11.60
2019-02-17T03:28:11.332Z,11.00
2019-02-17T03:29:11.319Z,11.30
2019-02-17T03:30:11.326Z,11.40
2019-02-17T03:31:11.341Z,11.40
2019-02-17T03:32:11.287Z,11.30
2019-02-17T03:33:11.273Z,10.90
2019-02-17T03:34:11.261Z,11.40
2019-02-17T03:35:11.274Z,10.60
2019-02-17T03:36:11.265Z,11.50
2019-02-17T03:37:11.231Z,11.30
2019-02-17T03:38:11.217Z,11.70
2019-02-17T03:39:11.208Z,11.40
2019-02-17T03:40:11.195Z,10.90
2019-02-17T03:41:11.200Z,11.10
2019-02-17T03:42:11.188Z,11.00
2019-02-17T03:43:11.169Z,11.50
2019-02-17T03:44:11.146Z,10.90
2019-02-17T03:45:11.141Z,11.60
2019-02-17T03:46:11.143Z,11.20
2019-02-17T03:47:11.115Z,11.60
2019-02-17T03:48:11.113Z,11.30
2019-02-17T03:49:11.089Z,11.30
2019-02-17T03:50:11.084Z,11.50
2019-02-17T03:51:11.092Z,11.50
2019-02-17T03:52:11.057Z,10.80
2019-02-17T03:53:11.055Z,11.60
2019-02-17T03:54:11.029Z,10.80
2019-02-17T03:55:11.021Z,11.80
2019-02-17T03:56:11.007Z,11.00
2019-02-17T03:57:11.018Z,11.00
2019-02-17T03:58:11.002Z,11.20
2019-02-17T03:59:10.972Z,11.10
2019-02-17T04:00:17.001Z,11.40
2019-02-17T04:01:11.946Z,11.40
2019-02-17T04:02:11.031Z,11.50
2019-02-17T04:03:10.943Z,11.80
2019-02-17T04:04:10.925Z,12.10
2019-02-17T04:05:10.902Z,11.70
2019-02-17T04:06:10.890Z,11.10
2019-02-17T04:07:10.902Z,12.00
2019-02-17T04:08:10.873Z,11.10
2019-02-17T04:09:10.868Z,11.30
2019-02-17T04:10:10.850Z,11.20
2019-02-17T04:11:10.854Z,11.60
2019-02-17T04:12:10.847Z,11.20
2019-02-17T04:13:10.828Z,11.20
2019-02-17T04:14:10.804Z,11.20
2019-02-17T04:15:10.792Z,11.40
2019-02-17T04:16:10.777Z,11.30
2019-02-17T04:17:10.793Z,10.80
2019-02-17T04:18:10.756Z,10.80
2019-02-17T04:19:10.746Z,11.90
2019-02-17T04:20:10.742Z,11.30
2019-02-17T04:21:10.720Z,11.10
2019-02-17T04:22:10.747Z,10.70
2019-02-17T04:23:10.696Z,11.50
2019-02-17T04:24:10.689Z,11.40
2019-02-17T04:25:10.686Z,10.80
2019-02-17T04:26:10.661Z,11.60
2019-02-17T04:27:10.655Z,11.70
2019-02-17T04:28:10.684Z,11.50
2019-02-17T04:29:10.632Z,11.70
2019-02-17T04:30:10.619Z,11.40
2019-02-17T04:31:10.605Z,11.60
2019-02-17T04:32:10.592Z,12.00
2019-02-17T04:33:10.600Z,10.70
2019-02-17T04:34:10.570Z,11.90
2019-02-17T04:35:10.561Z,11.60
2019-02-17T04:36:10.553Z,11.90
2019-02-17T04:37:10.548Z,11.70
2019-02-17T04:38:10.548Z,11.90
2019-02-17T04:39:10.516Z,11.50
2019-02-17T04:40:10.505Z,11.60
2019-02-17T04:41:10.495Z,12.20
2019-02-17T04:42:10.483Z,11.80
2019-02-17T04:43:10.498Z,12.30
2019-02-17T04:44:10.456Z,12.40
2019-02-17T04:45:10.444Z,12.40
2019-02-17T04:46:10.436Z,11.90
2019-02-17T04:47:10.430Z,12.30
2019-02-17T04:48:10.434Z,12.70
2019-02-17T04:49:10.397Z,11.80
2019-02-17T04:50:10.397Z,12.30
2019-02-17T04:51:10.381Z,11.50
2019-02-17T04:52:10.367Z,12.20
2019-02-17T04:53:10.373Z,12.10
2019-02-17T04:54:10.341Z,12.10
2019-02-17T04:55:10.329Z,12.80
2019-02-17T04:56:10.321Z,12.60
2019-02-17T04:57:10.314Z,11.40
2019-02-17T04:58:10.318Z,11.50
2019-02-17T04:59:10.280Z,12.20
2019-02-17T05:00:10.273Z,11.30
2019-02-17T05:01:10.264Z,12.00
2019-02-17T05:02:10.257Z,11.90
2019-02-17T05:03:10.270Z,11.90
2019-02-17T05:04:10.230Z,12.60
2019-02-17T05:05:10.215Z,12.20
2019-02-17T05:06:10.203Z,11.90
2019-02-17T05:07:10.196Z,12.30
2019-02-17T05:08:10.178Z,12.20
2019-02-17T05:09:10.189Z,12.00
2019-02-17T05:10:10.159Z,12.40
2019-02-17T05:11:10.148Z,11.90
2019-02-17T05:12:10.143Z,11.90
2019-02-17T05:13:10.152Z,11.90
2019-02-17T05:14:10.134Z,12.00
2019-02-17T05:15:10.123Z,11.60
2019-02-17T05:16:10.123Z,12.20
2019-02-17T05:17:10.077Z,11.80
2019-02-17T05:18:10.071Z,12.50
2019-02-17T05:19:10.079Z,11.50
2019-02-17T05:20:10.045Z,11.90
2019-02-17T05:21:10.040Z,12.60
2019-02-17T05:22:10.022Z,14.10
2019-02-17T05:23:10.031Z,14.10
2019-02-17T05:24:10.021Z,13.30
2019-02-17T05:25:09.984Z,12.10
2019-02-17T05:26:09.976Z,12.70
2019-02-17T05:27:09.963Z,12.70
2019-02-17T05:28:09.963Z,13.10
2019-02-17T05:29:09.961Z,12.40
2019-02-17T05:30:09.941Z,12.60
2019-02-17T05:31:09.973Z,12.40
2019-02-17T05:32:09.914Z,11.90
2019-02-17T05:33:09.894Z,11.80
2019-02-17T05:34:09.904Z,12.90
2019-02-17T05:35:09.876Z,12.20
2019-02-17T05:36:09.866Z,12.90
2019-02-17T05:37:09.846Z,12.80
2019-02-17T05:38:09.839Z,12.60
2019-02-17T05:39:09.848Z,13.10
2019-02-17T05:40:09.817Z,12.50
2019-02-17T05:41:09.815Z,13.40
2019-02-17T05:42:09.795Z,12.40
2019-02-17T05:43:09.781Z,12.00
2019-02-17T05:44:09.802Z,12.40
2019-02-17T05:45:09.769Z,12.50
2019-02-17T05:46:09.746Z,12.60
2019-02-17T05:47:09.732Z,12.00
2019-02-17T05:48:09.722Z,11.70
2019-02-17T05:49:09.713Z,12.10
2019-02-17T05:50:09.720Z,12.20
2019-02-17T05:51:09.685Z,12.60
2019-02-17T05:52:09.683Z,12.30
2019-02-17T05:53:09.661Z,12.30
2019-02-17T05:54:09.653Z,12.30
2019-02-17T05:55:09.660Z,13.10
2019-02-17T05:56:09.641Z,12.10
2019-02-17T05:57:09.620Z,12.00
2019-02-17T05:58:09.610Z,12.50
2019-02-17T05:59:09.590Z,12.70
2019-02-17T06:00:09.598Z,12.90
2019-02-17T06:01:09.631Z,12.90
2019-02-17T06:02:09.562Z,13.10
2019-02-17T06:03:09.543Z,14.20
2019-02-17T06:04:09.535Z,12.60
2019-02-17T06:05:09.560Z,12.40
2019-02-17T06:06:09.513Z,12.60
2019-02-17T06:07:09.517Z,12.70
2019-02-17T06:08:09.493Z,12.50
2019-02-17T06:09:09.483Z,13.10
2019-02-17T06:10:09.514Z,12.80
2019-02-17T06:11:09.456Z,12.80
2019-02-17T06:12:09.451Z,12.40
2019-02-17T06:13:09.458Z,13.60
2019-02-17T06:14:09.430Z,12.90
2019-02-17T06:15:09.422Z,12.80
2019-02-17T06:16:09.398Z,13.60
2019-02-17T06:17:09.390Z,12.90
2019-02-17T06:18:09.448Z,12.30
2019-02-17T06:19:09.371Z,12.40
2019-02-17T06:20:09.371Z,12.70
2019-02-17T06:21:09.343Z,13.40
2019-02-17T06:22:09.330Z,12.90
2019-02-17T06:23:09.336Z,12.90
2019-02-17T06:24:09.317Z,12.90
2019-02-17T06:25:09.319Z,11.80
2019-02-17T06:26:09.295Z,12.20
2019-02-17T06:27:09.270Z,12.10
2019-02-17T06:28:09.261Z,12.30
2019-02-17T06:29:09.253Z,12.00
2019-02-17T06:30:09.261Z,12.20
2019-02-17T06:31:14.537Z,12.30
2019-02-17T06:32:10.224Z,12.40
2019-02-17T06:33:09.209Z,12.90
2019-02-17T06:34:09.195Z,12.30
2019-02-17T06:35:09.183Z,12.80
2019-02-17T06:36:09.209Z,13.40
2019-02-17T06:37:09.162Z,12.20
2019-02-17T06:38:09.155Z,11.90
2019-02-17T06:39:09.142Z,12.40
2019-02-17T06:40:09.130Z,12.10
2019-02-17T06:41:09.143Z,14.20
2019-02-17T06:42:09.103Z,14.00
2019-02-17T06:43:09.111Z,13.30
2019-02-17T06:44:09.090Z,13.00
2019-02-17T06:45:09.065Z,12.40
2019-02-17T06:46:09.334Z,12.60
2019-02-17T06:47:09.065Z,11.90
2019-02-17T06:48:09.032Z,12.40
2019-02-17T06:49:09.034Z,12.00
2019-02-17T06:50:09.027Z,12.70
2019-02-17T06:51:09.029Z,12.10
2019-02-17T06:52:08.991Z,12.60
2019-02-17T06:53:08.988Z,13.80
2019-02-17T06:54:08.974Z,12.90
2019-02-17T06:55:08.955Z,12.60
2019-02-17T06:56:09.160Z,13.30
2019-02-17T06:57:09.006Z,12.80
2019-02-17T06:58:08.933Z,12.90
2019-02-17T06:59:08.914Z,12.10
2019-02-17T07:00:08.896Z,14.90
2019-02-17T07:01:08.903Z,13.30
2019-02-17T07:02:08.881Z,13.60
2019-02-17T07:03:08.875Z,12.90
2019-02-17T07:04:08.853Z,12.80
2019-02-17T07:05:08.838Z,12.70
2019-02-17T07:06:08.866Z,12.30
2019-02-17T07:07:08.827Z,12.30
2019-02-17T07:08:08.814Z,12.30
2019-02-17T07:09:08.803Z,12.50
2019-02-17T07:10:08.790Z,12.50
2019-02-17T07:11:08.788Z,12.50
2019-02-17T07:12:08.775Z,12.00
2019-02-17T07:13:08.754Z,12.60
2019-02-17T07:14:08.748Z,12.80
2019-02-17T07:15:08.731Z,12.90
2019-02-17T07:16:08.733Z,12.60
2019-02-17T07:17:08.719Z,12.40
2019-02-17T07:18:08.699Z,12.60
2019-02-17T07:19:08.695Z,12.20
2019-02-17T07:20:09.733Z,12.30
2019-02-17T07:21:08.661Z,12.80
2019-02-17T07:22:08.667Z,11.00
2019-02-17T07:23:08.631Z,10.80
2019-02-17T07:24:08.630Z,11.10
2019-02-17T07:25:08.620Z,11.20
2019-02-17T07:26:08.620Z,10.80
2019-02-17T07:27:08.630Z,11.30
2019-02-17T07:28:08.575Z,10.20
2019-02-17T07:29:08.572Z,11.50
2019-02-17T07:30:08.558Z,11.80
2019-02-17T07:31:08.574Z,11.80
2019-02-17T07:32:08.637Z,11.90
2019-02-17T07:33:08.519Z,11.80
2019-02-17T07:34:08.508Z,11.90
2019-02-17T07:35:08.524Z,11.80
2019-02-17T07:36:08.516Z,12.00
2019-02-17T07:37:08.528Z,11.50
2019-02-17T07:38:08.465Z,11.00
2019-02-17T07:39:08.455Z,12.60
2019-02-17T07:40:08.445Z,12.00
2019-02-17T07:41:08.442Z,12.30
2019-02-17T07:42:09.682Z,12.00
2019-02-17T07:43:08.458Z,12.00
2019-02-17T07:44:08.396Z,12.70
2019-02-17T07:45:09.000Z,11.90
2019-02-17T07:46:08.403Z,11.90
2019-02-17T07:47:08.451Z,12.50
2019-02-17T07:48:08.422Z,13.20
2019-02-17T07:49:08.347Z,12.90
2019-02-17T07:50:08.328Z,13.00
2019-02-17T07:51:08.354Z,13.10
2019-02-17T07:52:08.319Z,12.90
2019-02-17T07:53:08.302Z,13.00
2019-02-17T07:54:08.287Z,12.50
2019-02-17T07:55:08.272Z,13.30
2019-02-17T07:56:08.272Z,14.00
2019-02-17T07:57:08.270Z,14.10
2019-02-17T07:58:08.235Z,14.00
2019-02-17T07:59:08.228Z,13.40
2019-02-17T08:00:08.217Z,14.00
2019-02-17T08:01:08.259Z,13.30
2019-02-17T08:02:08.227Z,14.10
2019-02-17T08:03:08.197Z,14.40
2019-02-17T08:04:08.170Z,15.00
2019-02-17T08:05:08.162Z,14.90
2019-02-17T08:06:08.145Z,14.40
2019-02-17T08:07:08.142Z,14.10
2019-02-17T08:08:08.152Z,13.60
2019-02-17T08:09:08.138Z,15.10
2019-02-17T08:10:08.122Z,17.50
2019-02-17T08:11:08.094Z,17.30
2019-02-17T08:12:08.081Z,16.40
2019-02-17T08:13:08.090Z,16.70
2019-02-17T08:14:08.054Z,15.60
2019-02-17T08:15:08.092Z,15.40
2019-02-17T08:16:08.045Z,15.30
2019-02-17T08:17:08.033Z,15.20
2019-02-17T08:18:08.050Z,15.20
2019-02-17T08:19:08.013Z,15.00
2019-02-17T08:20:07.992Z,14.40
2019-02-17T08:21:07.980Z,14.90
2019-02-17T08:22:07.971Z,15.30
2019-02-17T08:23:07.991Z,15.50
2019-02-17T08:24:07.962Z,15.10
2019-02-17T08:25:07.933Z,14.70
2019-02-17T08:26:07.927Z,15.20
2019-02-17T08:27:07.909Z,15.80
2019-02-17T08:28:07.903Z,14.50
2019-02-17T08:29:07.943Z,15.20
2019-02-17T08:30:07.886Z,15.80
2019-02-17T08:31:07.873Z,15.50
2019-02-17T08:32:07.858Z,15.30
2019-02-17T08:33:07.878Z,15.60
2019-02-17T08:34:07.854Z,15.90
2019-02-17T08:35:07.833Z,16.20
2019-02-17T08:36:07.811Z,16.10
2019-02-17T08:37:07.805Z,14.90
2019-02-17T08:38:07.794Z,16.30
2019-02-17T08:39:07.796Z,15.50
2019-02-17T08:40:07.771Z,14.70
2019-02-17T08:41:07.786Z,14.80
2019-02-17T08:42:07.768Z,15.60
2019-02-17T08:43:07.737Z,16.20
2019-02-17T08:44:07.758Z,15.00
2019-02-17T08:45:07.756Z,17.20
2019-02-17T08:46:07.701Z,16.90
2019-02-17T08:47:07.710Z,15.90
2019-02-17T08:48:07.703Z,16.30
2019-02-17T08:49:07.671Z,15.70
2019-02-17T08:50:07.688Z,15.80
2019-02-17T08:51:07.659Z,16.20
2019-02-17T08:52:07.651Z,15.50
2019-02-17T08:53:07.667Z,16.00
2019-02-17T08:54:07.624Z,15.40
2019-02-17T08:55:07.626Z,16.30
2019-02-17T08:56:07.609Z,15.70
2019-02-17T08:57:07.574Z,15.70
2019-02-17T08:58:07.567Z,15.60
2019-02-17T08:59:07.560Z,14.70
2019-02-17T09:00:07.561Z,15.70
2019-02-17T09:01:07.533Z,15.60
2019-02-17T09:02:07.529Z,16.00
2019-02-17T09:03:07.510Z,16.00
2019-02-17T09:04:07.506Z,16.10
2019-02-17T09:05:07.525Z,15.70
2019-02-17T09:06:07.478Z,14.90
2019-02-17T09:07:07.479Z,16.10
2019-02-17T09:08:07.455Z,16.60
2019-02-17T09:09:07.459Z,15.60
2019-02-17T09:10:07.436Z,15.90
2019-02-17T09:11:07.451Z,16.60
2019-02-17T09:12:07.411Z,16.50
2019-02-17T09:13:07.409Z,17.20
2019-02-17T09:14:07.393Z,16.70
2019-02-17T09:15:07.422Z,17.00
2019-02-17T09:16:07.463Z,16.30
2019-02-17T09:17:07.365Z,16.90
2019-02-17T09:18:07.344Z,16.60
2019-02-17T09:19:07.330Z,16.80
2019-02-17T09:20:08.037Z,17.00
2019-02-17T09:21:07.327Z,17.50
2019-02-17T09:22:07.312Z,17.00
2019-02-17T09:23:07.298Z,17.10
2019-02-17T09:24:07.277Z,17.90
2019-02-17T09:25:07.268Z,16.70
2019-02-17T09:26:07.278Z,17.80
2019-02-17T09:27:07.238Z,16.90
2019-02-17T09:28:07.234Z,16.90
2019-02-17T09:29:07.259Z,17.20
2019-02-17T09:30:07.214Z,17.20
2019-02-17T09:31:07.227Z,18.50
2019-02-17T09:32:16.014Z,17.80
2019-02-17T09:33:08.176Z,17.50
2019-02-17T09:34:07.183Z,18.40
2019-02-17T09:35:07.151Z,20.40
2019-02-17T09:36:07.138Z,19.50
2019-02-17T09:37:07.147Z,18.30
2019-02-17T09:38:07.129Z,19.20
2019-02-17T09:39:07.106Z,19.70
2019-02-17T09:40:07.099Z,18.60
2019-02-17T09:41:07.108Z,18.30
2019-02-17T09:42:07.089Z,17.90
2019-02-17T09:43:07.057Z,18.70
2019-02-17T09:44:07.065Z,18.70
2019-02-17T09:45:07.045Z,18.20
2019-02-17T09:46:07.024Z,18.10
2019-02-17T09:47:07.025Z,18.90
2019-02-17T09:48:07.012Z,17.70
2019-02-17T09:49:07.006Z,18.80
2019-02-17T09:50:06.983Z,18.50
2019-02-17T09:51:06.965Z,18.90
2019-02-17T09:52:06.984Z,18.80
2019-02-17T09:53:06.943Z,18.80
2019-02-17T09:54:06.933Z,18.70
2019-02-17T09:55:06.920Z,19.20
2019-02-17T09:56:06.911Z,18.50
2019-02-17T09:57:06.927Z,19.50
2019-02-17T09:58:06.898Z,20.20
2019-02-17T09:59:06.876Z,21.00
2019-02-17T10:00:06.859Z,20.60
2019-02-17T10:01:06.939Z,21.60
2019-02-17T10:02:06.849Z,22.10
2019-02-17T10:03:06.841Z,21.20
2019-02-17T10:04:06.817Z,20.90
2019-02-17T10:05:06.831Z,21.00
2019-02-17T10:06:06.817Z,20.30
2019-02-17T10:07:06.785Z,21.00
2019-02-17T10:08:06.793Z,20.90
2019-02-17T10:09:06.761Z,21.00
2019-02-17T10:10:06.751Z,20.10
2019-02-17T10:11:06.736Z,20.70
2019-02-17T10:12:06.724Z,20.50
2019-02-17T10:13:06.745Z,20.70
2019-02-17T10:14:06.706Z,25.40
2019-02-17T10:15:06.694Z,25.40
2019-02-17T10:16:06.678Z,26.50
2019-02-17T10:17:06.668Z,25.50
2019-02-17T10:18:06.678Z,22.60
2019-02-17T10:19:06.659Z,20.70
2019-02-17T10:20:06.632Z,21.90
2019-02-17T10:21:06.629Z,20.80
2019-02-17T10:22:06.649Z,20.10
2019-02-17T10:23:06.619Z,20.60
2019-02-17T10:24:06.591Z,20.60
2019-02-17T10:25:06.578Z,21.10
2019-02-17T10:26:06.562Z,20.80
2019-02-17T10:27:06.552Z,21.10
2019-02-17T10:28:06.574Z,20.90
2019-02-17T10:29:06.537Z,20.40
2019-02-17T10:30:06.526Z,20.40
2019-02-17T10:31:06.809Z,22.60
2019-02-17T10:32:06.506Z,22.50
2019-02-17T10:33:06.497Z,21.10
2019-02-17T10:34:06.551Z,21.50
2019-02-17T10:35:06.461Z,21.10
2019-02-17T10:36:06.536Z,22.00
2019-02-17T10:37:06.611Z,20.90
2019-02-17T10:38:06.434Z,21.60
2019-02-17T10:39:06.439Z,21.80
2019-02-17T10:40:06.409Z,21.30
2019-02-17T10:41:06.402Z,21.20
2019-02-17T10:42:06.393Z,20.90
2019-02-17T10:43:06.378Z,21.40
2019-02-17T10:44:06.387Z,20.30
2019-02-17T10:45:06.361Z,21.50
2019-02-17T10:46:06.391Z,21.30
2019-02-17T10:47:06.333Z,22.20
2019-02-17T10:48:06.326Z,21.60
2019-02-17T10:49:06.335Z,20.70
2019-02-17T10:50:06.304Z,20.70
2019-02-17T10:51:06.293Z,21.30
2019-02-17T10:52:06.282Z,20.80
2019-02-17T10:53:06.266Z,20.50
2019-02-17T10:54:06.255Z,20.90
2019-02-17T10:55:06.268Z,21.20
2019-02-17T10:56:06.236Z,20.50
2019-02-17T10:57:06.256Z,20.40
2019-02-17T10:58:06.220Z,20.80
2019-02-17T10:59:06.276Z,21.30
2019-02-17T11:00:06.202Z,20.60
2019-02-17T11:01:06.188Z,19.80
2019-02-17T11:02:06.159Z,20.20
2019-02-17T11:03:06.149Z,20.00
2019-02-17T11:04:06.141Z,20.70
2019-02-17T11:05:06.160Z,20.60
2019-02-17T11:06:06.118Z,21.10
2019-02-17T11:07:06.115Z,21.00
2019-02-17T11:08:06.124Z,21.00
2019-02-17T11:09:06.094Z,20.60
2019-02-17T11:10:06.102Z,21.40
2019-02-17T11:11:06.086Z,21.40
2019-02-17T11:12:06.055Z,21.10
2019-02-17T11:13:06.127Z,21.10
2019-02-17T11:14:06.039Z,22.30
2019-02-17T11:15:06.045Z,21.30
2019-02-17T11:16:06.010Z,21.70
2019-02-17T11:17:05.994Z,21.20
2019-02-17T11:18:05.987Z,21.70
2019-02-17T11:19:05.977Z,20.50
2019-02-17T11:20:05.974Z,21.30
2019-02-17T11:21:05.969Z,20.60
2019-02-17T11:22:05.968Z,21.20
2019-02-17T11:23:05.927Z,21.40
2019-02-17T11:24:05.919Z,21.10
2019-02-17T11:25:05.930Z,20.80
2019-02-17T11:26:05.905Z,22.50
2019-02-17T11:27:05.881Z,21.80
2019-02-17T11:28:05.880Z,21.90
2019-02-17T11:29:05.862Z,21.80
2019-02-17T11:30:05.849Z,22.40
2019-02-17T11:31:05.861Z,21.90
2019-02-17T11:32:05.830Z,22.50
2019-02-17T11:33:05.847Z,23.30
2019-02-17T11:34:05.814Z,23.00
2019-02-17T11:35:05.801Z,21.90
2019-02-17T11:36:05.806Z,22.60
2019-02-17T11:37:05.768Z,22.10
2019-02-17T11:38:05.846Z,22.80
2019-02-17T11:39:05.750Z,22.00
2019-02-17T11:40:05.738Z,22.80
2019-02-17T11:41:05.925Z,21.80
2019-02-17T11:42:05.711Z,21.00
2019-02-17T11:43:05.715Z,21.70
2019-02-17T11:44:05.700Z,20.60
2019-02-17T11:45:05.677Z,20.70
2019-02-17T11:46:05.696Z,21.80
2019-02-17T11:47:07.315Z,21.50
2019-02-17T11:48:05.635Z,21.80
2019-02-17T11:49:05.682Z,22.90
2019-02-17T11:50:05.620Z,20.70
2019-02-17T11:51:05.636Z,86.90
2019-02-17T11:52:05.594Z,49.80
2019-02-17T11:53:05.586Z,30.40
2019-02-17T11:54:05.574Z,22.30
2019-02-17T11:55:05.560Z,23.10
2019-02-17T11:56:05.544Z,21.60
2019-02-17T11:57:05.564Z,22.30
2019-02-17T11:58:05.527Z,22.00
2019-02-17T11:59:05.513Z,21.30
2019-02-17T12:00:05.538Z,20.90
2019-02-17T12:01:05.588Z,22.80
2019-02-17T12:02:05.499Z,21.80
2019-02-17T12:03:08.159Z,21.80
2019-02-17T12:04:05.453Z,20.90
2019-02-17T12:05:05.449Z,21.90
2019-02-17T12:06:05.427Z,22.30
2019-02-17T12:07:05.484Z,21.30
2019-02-17T12:08:05.416Z,22.40
2019-02-17T12:09:05.401Z,22.00
2019-02-17T12:10:05.414Z,20.40
2019-02-17T12:11:05.378Z,22.70
2019-02-17T12:12:05.386Z,21.90
2019-02-17T12:13:05.354Z,21.80
2019-02-17T12:14:05.348Z,22.20
2019-02-17T12:15:05.331Z,22.00
2019-02-17T12:16:05.314Z,21.70
2019-02-17T12:17:05.330Z,21.40
2019-02-17T12:18:05.301Z,21.50
2019-02-17T12:19:05.295Z,21.30
2019-02-17T12:20:05.344Z,20.10
2019-02-17T12:21:05.285Z,21.50
2019-02-17T12:22:05.262Z,20.80
2019-02-17T12:23:05.257Z,21.50
2019-02-17T12:24:05.229Z,20.60
2019-02-17T12:25:05.243Z,21.70
2019-02-17T12:26:05.204Z,21.00
2019-02-17T12:27:05.240Z,20.70
2019-02-17T12:28:05.182Z,21.80
2019-02-17T12:29:05.249Z,21.10
2019-02-17T12:30:05.177Z,20.00
2019-02-17T12:31:05.187Z,20.60
2019-02-17T12:32:05.147Z,20.10
2019-02-17T12:33:05.149Z,19.60
2019-02-17T12:34:05.163Z,20.50
2019-02-17T12:35:05.106Z,19.90
2019-02-17T12:36:05.092Z,20.40
2019-02-17T12:37:05.082Z,20.80
2019-02-17T12:38:05.097Z,21.50
2019-02-17T12:39:05.092Z,20.40
2019-02-17T12:40:05.052Z,21.10
2019-02-17T12:41:05.031Z,21.70
2019-02-17T12:42:05.036Z,21.50
2019-02-17T12:43:05.039Z,20.30
2019-02-17T12:44:05.022Z,20.80
2019-02-17T12:45:04.986Z,20.00
2019-02-17T12:46:04.977Z,21.10
2019-02-17T12:47:04.975Z,21.30
2019-02-17T12:48:04.985Z,21.30
2019-02-17T12:49:04.937Z,20.50
2019-02-17T12:50:05.178Z,20.40
2019-02-17T12:51:04.917Z,21.00
2019-02-17T12:52:04.908Z,20.80